Airfield :
LOGIN :

Register | Disclaimer

   EN    FR    IT 

 










Legend :    VFR   Marginal VFR   IFR   Intensive IFR   Very Intensive IFR
Visi :
Ceiling :
>= 8 km
>= 3000ft
5 to 8 km
1000 to 3000 ft
1500m to 5 km
500 to 1000 ft
800 to 1500m
200 to 500 ft
< 800m
< 200 ft
Symbols :   Thunderstorms  Fog  Heavy snow  Heavy precipitations  Wind > 20 kt
SIGMETs :     Misc.  Thunderstorms  Icing  Turbulence  Mountain Waves  Volcanic Ashes






- Airport Elevation : 20 ft
- IATA code : LSI


EGPB - Sumburgh

CURRENT METAR :
  • 022050Z 32004KT 9999 BKN028 11/08 Q1013

EXPIRED METARs :
  • 022020Z 32006KT 9999 FEW018 BKN028 11/08 Q1013
  • 021950Z 32005KT 9999 FEW015 BKN028 11/08 Q1013
  • 021920Z 33006KT 9999 FEW012 BKN030 11/08 Q1013 NOSIG
  • 021850Z 32007KT 9999 FEW013 BKN030 11/08 Q1013
  • 021820Z 33007KT 9999 FEW012 BKN025 11/08 Q1013

TAF TAF EGPB
Valid from the 02 at 21:00 until the 03 at 06:00 UTC


021955Z 0221/0306 31007KT 9999 FEW012 BKN020
PROB30
TEMPO 0300/0306 8000 -SHRA BKN012
BECMG 0303/0306 22010KT



MET'MAP, your aeronautical weather chart ! - Copyright ORBIFLY December 2007 - Disclaimer

ORBIFLY MET'MAP TEAM :

Programming & Development : Alexandra Zaïnal
Concept & original design : Baudouin d'Aumeries
Assistance for programming : Marc-Olivier Méhu
Technical & hardware support : Manuel Goepfert

Contact : metmap@orbifly.com




SOURCES & CREDITS :

   NOAA